Holbaek, Denmark
Current Conditions -  °F | °C
As of 10:50 AM on Saturday 25 Oct 2014 (Local Time) from EKRK Reporting Station
Haze Haze  
Wind Chill: 50°   Ceiling: 700
Heat Index: 50°   Visibility: 2.8mi
Dew Point: 48°   Wind: 12mph
Humidity: 94%   Direction: 190°S
Pressure: 30"   Gusts: NA
Location:  55.72°N, 11.72°E
Report Text: EKRK 250850Z AUTO 19010KT 4500NDV BR SCT005/// OVC007///10/09 Q1016
Loading
Personal Weather Stations






























Interactive Weather Map
Tropical Storm Tracking
New forecast layout! Learn more

10-Day Weather Forecast

Advertisements
Track Severe Weather on mobile